Time;durP1;ratioP1;P1;durP2;ratioP2;P2;SDS_P1;SDS_P2;PMS_P1;PMS_P2;Temp;Humidity;BMP_temperature;BMP_pressure;BME280_temperature;BME280_humidity;BME280_pressure;Samples;Min_cycle;Max_cycle;Signal;HPM_P1;HPM_P2
2022/05/18 00:00:27;;;;;;;0.70;0.32;;;;;;;;;;2081955;28;20074;-69
2022/05/18 00:01:46;;;;;;;2.45;0.60;;;;;;;;;;2085201;28;20033;-69
2022/05/18 00:03:07;;;;;;;0.55;0.55;;;;;;;;;;2088986;28;20025;-68
2022/05/18 00:04:27;;;;;;;0.77;0.60;;;;;;;;;;2089811;28;20029;-68
2022/05/18 00:05:46;;;;;;;0.55;0.55;;;;;;;;;;2090913;28;20058;-69
2022/05/18 00:07:05;;;;;;;0.57;0.50;;;;;;;;;;2090293;28;20021;-70
2022/05/18 00:08:24;;;;;;;1.85;0.47;;;;;;;;;;2089610;28;20025;-69
2022/05/18 00:09:43;;;;;;;1.65;0.70;;;;;;;;;;2090353;28;20526;-69
2022/05/18 00:11:07;;;;;;;0.40;0.40;;;;;;;;;;2089840;28;20037;-70
2022/05/18 00:12:26;;;;;;;1.58;0.75;;;;;;;;;;2090293;28;20021;-69
2022/05/18 00:13:46;;;;;;;2.15;0.60;;;;;;;;;;2090478;28;20021;-69
2022/05/18 00:15:05;;;;;;;1.45;0.45;;;;;;;;;;2089920;28;20021;-69
2022/05/18 00:16:24;;;;;;;0.93;0.60;;;;;;;;;;2082198;28;20038;-69
2022/05/18 00:17:43;;;;;;;1.15;0.40;;;;;;;;;;2087165;28;20126;-70
2022/05/18 00:19:02;;;;;;;1.38;0.57;;;;;;;;;;2090613;28;20029;-69
2022/05/18 00:20:21;;;;;;;1.98;0.55;;;;;;;;;;2089206;28;20025;-68
2022/05/18 00:21:41;;;;;;;0.70;0.50;;;;;;;;;;2091274;28;20025;-69
2022/05/18 00:23:01;;;;;;;0.90;0.40;;;;;;;;;;2091381;28;20021;-69
2022/05/18 00:24:21;;;;;;;1.13;0.60;;;;;;;;;;2092548;28;20033;-68
2022/05/18 00:25:41;;;;;;;1.98;0.63;;;;;;;;;;2090971;28;20025;-69
2022/05/18 00:27:03;;;;;;;0.50;0.40;;;;;;;;;;2091377;28;20399;-69
2022/05/18 00:28:22;;;;;;;1.27;0.60;;;;;;;;;;2091190;28;20021;-68
2022/05/18 00:29:40;;;;;;;1.10;0.55;;;;;;;;;;2091473;28;20053;-68
2022/05/18 00:31:00;;;;;;;2.65;0.57;;;;;;;;;;2091184;28;20483;-69
2022/05/18 00:32:18;;;;;;;3.53;0.60;;;;;;;;;;2089993;28;20032;-69
2022/05/18 00:33:37;;;;;;;0.93;0.60;;;;;;;;;;2091531;28;20559;-69
2022/05/18 00:34:56;;;;;;;0.98;0.60;;;;;;;;;;2082033;28;20519;-69
2022/05/18 00:36:15;;;;;;;0.60;0.60;;;;;;;;;;2086194;28;20033;-68
2022/05/18 00:37:34;;;;;;;0.70;0.50;;;;;;;;;;2090153;28;20033;-68
2022/05/18 00:38:53;;;;;;;0.57;0.50;;;;;;;;;;2082251;28;20029;-68
2022/05/18 00:40:13;;;;;;;1.85;0.60;;;;;;;;;;2087338;28;20053;-68
2022/05/18 00:41:33;;;;;;;1.95;0.60;;;;;;;;;;2090803;28;20037;-69
2022/05/18 00:42:52;;;;;;;1.42;0.50;;;;;;;;;;2090186;28;20450;-69
2022/05/18 00:44:11;;;;;;;2.85;0.60;;;;;;;;;;2090275;28;20061;-69
2022/05/18 00:45:30;;;;;;;1.05;0.52;;;;;;;;;;2088621;28;20479;-69
2022/05/18 00:46:48;;;;;;;0.65;0.60;;;;;;;;;;2090770;28;20041;-69
2022/05/18 00:48:07;;;;;;;1.17;0.47;;;;;;;;;;2088343;28;20034;-69
2022/05/18 00:49:26;;;;;;;2.55;0.88;;;;;;;;;;2090800;28;20041;-68
2022/05/18 00:50:45;;;;;;;1.65;0.55;;;;;;;;;;2090872;28;20037;-69
2022/05/18 00:52:04;;;;;;;0.65;0.50;;;;;;;;;;2090328;28;20379;-69
2022/05/18 00:53:29;;;;;;;2.80;0.55;;;;;;;;;;2089692;28;20045;-69
2022/05/18 00:54:48;;;;;;;0.70;0.50;;;;;;;;;;2079518;28;20042;-68
2022/05/18 00:56:09;;;;;;;0.77;0.50;;;;;;;;;;2085329;28;20096;-68
2022/05/18 00:57:32;;;;;;;0.75;0.60;;;;;;;;;;2091116;28;20029;-68
2022/05/18 00:58:56;;;;;;;0.85;0.50;;;;;;;;;;2089893;28;20033;-69
2022/05/18 01:00:16;;;;;;;1.58;0.73;;;;;;;;;;2090097;28;20017;-68
2022/05/18 01:01:35;;;;;;;1.42;0.50;;;;;;;;;;2090662;28;20057;-69
2022/05/18 01:02:57;;;;;;;1.98;0.90;;;;;;;;;;2091145;28;20033;-68
2022/05/18 01:04:16;;;;;;;1.15;0.55;;;;;;;;;;2090905;28;20022;-68
2022/05/18 01:05:35;;;;;;;1.48;0.60;;;;;;;;;;2090126;28;20025;-68
2022/05/18 01:07:00;;;;;;;1.88;0.90;;;;;;;;;;2090165;28;20028;-69
2022/05/18 01:08:23;;;;;;;1.33;0.63;;;;;;;;;;2089610;28;20495;-69
2022/05/18 01:09:43;;;;;;;2.42;0.80;;;;;;;;;;2089231;28;20494;-68
2022/05/18 01:11:03;;;;;;;2.25;0.80;;;;;;;;;;2090222;28;20033;-69
2022/05/18 01:12:22;;;;;;;1.20;0.70;;;;;;;;;;2090666;28;20478;-68
2022/05/18 01:13:41;;;;;;;0.95;0.68;;;;;;;;;;2090919;28;20514;-68
2022/05/18 01:15:02;;;;;;;2.55;0.50;;;;;;;;;;2089991;28;20029;-69
2022/05/18 01:16:22;;;;;;;0.60;0.47;;;;;;;;;;2090058;28;20040;-69
2022/05/18 01:17:43;;;;;;;2.15;0.70;;;;;;;;;;2081679;28;20029;-68
2022/05/18 01:19:03;;;;;;;0.70;0.70;;;;;;;;;;2087624;28;20570;-68
2022/05/18 01:20:28;;;;;;;2.15;0.70;;;;;;;;;;2091016;28;20036;-69
2022/05/18 01:21:52;;;;;;;1.05;0.65;;;;;;;;;;2090748;28;20120;-68
2022/05/18 01:23:38;;;;;;;2.42;0.68;;;;;;;;;;2091452;28;20025;-67
2022/05/18 01:25:18;;;;;;;3.45;0.70;;;;;;;;;;2089834;28;20048;-68
2022/05/18 01:26:41;;;;;;;1.27;0.70;;;;;;;;;;2090560;28;20049;-69
2022/05/18 01:28:00;;;;;;;0.77;0.60;;;;;;;;;;2090066;28;20064;-69
2022/05/18 01:29:20;;;;;;;2.20;0.60;;;;;;;;;;2089348;28;20468;-69
2022/05/18 01:30:42;;;;;;;1.58;0.52;;;;;;;;;;2088895;28;20029;-69
2022/05/18 01:32:03;;;;;;;0.95;0.68;;;;;;;;;;2087650;28;20476;-68
2022/05/18 01:33:24;;;;;;;2.28;0.60;;;;;;;;;;2090789;28;20037;-69
2022/05/18 01:34:43;;;;;;;1.83;0.60;;;;;;;;;;2089179;28;20036;-69
2022/05/18 01:36:02;;;;;;;0.80;0.50;;;;;;;;;;2089159;28;20025;-68
2022/05/18 01:37:21;;;;;;;0.65;0.45;;;;;;;;;;2089362;28;20025;-69
2022/05/18 01:38:41;;;;;;;1.55;0.50;;;;;;;;;;2081758;28;20112;-69
2022/05/18 01:40:03;;;;;;;1.08;0.50;;;;;;;;;;2086935;28;20447;-70
2022/05/18 01:41:22;;;;;;;0.77;0.75;;;;;;;;;;2086607;28;20484;-69
2022/05/18 01:42:52;;;;;;;1.08;0.50;;;;;;;;;;2089856;28;20029;-69
2022/05/18 01:44:11;;;;;;;2.40;0.60;;;;;;;;;;2090124;28;20032;-69
2022/05/18 01:45:30;;;;;;;0.80;0.60;;;;;;;;;;2089683;28;20025;-69
2022/05/18 01:46:49;;;;;;;2.30;0.63;;;;;;;;;;2089840;28;20029;-69
2022/05/18 01:48:13;;;;;;;1.42;0.70;;;;;;;;;;2090586;28;20033;-69
2022/05/18 01:49:34;;;;;;;2.63;0.50;;;;;;;;;;2089257;28;20033;-69
2022/05/18 01:50:53;;;;;;;3.53;0.70;;;;;;;;;;2089457;28;20029;-69
2022/05/18 01:52:13;;;;;;;0.88;0.47;;;;;;;;;;2088559;28;20037;-70
2022/05/18 01:53:33;;;;;;;0.50;0.50;;;;;;;;;;2089456;28;20022;-70
2022/05/18 01:54:52;;;;;;;1.20;0.50;;;;;;;;;;2089617;28;20092;-69
2022/05/18 01:56:11;;;;;;;0.40;0.40;;;;;;;;;;2089569;28;20025;-69
2022/05/18 01:57:32;;;;;;;0.90;0.60;;;;;;;;;;2089613;28;20108;-70
2022/05/18 01:58:51;;;;;;;2.35;0.70;;;;;;;;;;2090674;28;20476;-69
2022/05/18 02:00:11;;;;;;;0.63;0.63;;;;;;;;;;2090447;28;20108;-69
2022/05/18 02:01:30;;;;;;;1.27;0.52;;;;;;;;;;2088591;28;20095;-68
2022/05/18 02:02:49;;;;;;;1.15;0.80;;;;;;;;;;2088169;28;20017;-69
2022/05/18 02:04:07;;;;;;;1.38;0.75;;;;;;;;;;2090079;28;20025;-69
2022/05/18 02:05:26;;;;;;;0.82;0.70;;;;;;;;;;2090041;28;20454;-69
2022/05/18 02:06:45;;;;;;;3.53;0.60;;;;;;;;;;2087786;28;20033;-69
2022/05/18 02:08:05;;;;;;;2.70;0.85;;;;;;;;;;2079746;28;20500;-70
2022/05/18 02:09:23;;;;;;;2.47;0.60;;;;;;;;;;2077704;28;20041;-69
2022/05/18 02:10:43;;;;;;;2.50;0.90;;;;;;;;;;2086148;28;20025;-69
2022/05/18 02:12:02;;;;;;;1.52;0.80;;;;;;;;;;2089733;28;20021;-68
2022/05/18 02:13:21;;;;;;;3.85;0.63;;;;;;;;;;2082455;28;20033;-69
2022/05/18 02:14:40;;;;;;;3.13;0.60;;;;;;;;;;2078261;28;20516;-69
2022/05/18 02:16:02;;;;;;;1.45;0.60;;;;;;;;;;2086527;28;20029;-71
2022/05/18 02:17:23;;;;;;;2.20;0.70;;;;;;;;;;2089329;28;20025;-70
2022/05/18 02:18:42;;;;;;;1.13;0.47;;;;;;;;;;2081369;28;20534;-70
2022/05/18 02:20:01;;;;;;;0.80;0.47;;;;;;;;;;2085726;28;20025;-69
2022/05/18 02:21:20;;;;;;;1.00;0.60;;;;;;;;;;2090389;28;20021;-70
2022/05/18 02:22:39;;;;;;;0.68;0.68;;;;;;;;;;2080811;28;20030;-69
2022/05/18 02:23:58;;;;;;;1.02;0.60;;;;;;;;;;2085582;28;20025;-67
2022/05/18 02:25:17;;;;;;;1.95;0.70;;;;;;;;;;2089374;28;20479;-69
2022/05/18 02:26:36;;;;;;;0.77;0.73;;;;;;;;;;2090101;28;20398;-69
2022/05/18 02:27:55;;;;;;;1.45;0.60;;;;;;;;;;2090570;28;20439;-69
2022/05/18 02:29:14;;;;;;;0.57;0.55;;;;;;;;;;2090171;28;20068;-69
2022/05/18 02:30:33;;;;;;;3.67;0.85;;;;;;;;;;2088148;28;20029;-67
2022/05/18 02:31:52;;;;;;;1.67;0.80;;;;;;;;;;2088519;28;20037;-70
2022/05/18 02:33:11;;;;;;;1.35;0.70;;;;;;;;;;2090134;28;20419;-70
2022/05/18 02:34:30;;;;;;;1.08;0.93;;;;;;;;;;2088968;28;20029;-71
2022/05/18 02:35:49;;;;;;;1.42;0.90;;;;;;;;;;2089410;28;20025;-69
2022/05/18 02:37:08;;;;;;;1.08;0.70;;;;;;;;;;2080640;28;20021;-69
2022/05/18 02:38:27;;;;;;;1.60;0.70;;;;;;;;;;2086422;28;20040;-70
2022/05/18 02:39:46;;;;;;;2.33;0.80;;;;;;;;;;2090524;28;20029;-69
2022/05/18 02:41:05;;;;;;;1.75;0.90;;;;;;;;;;2090251;28;20459;-69
2022/05/18 02:42:24;;;;;;;2.78;0.65;;;;;;;;;;2089828;28;20037;-69
2022/05/18 02:43:43;;;;;;;1.20;0.60;;;;;;;;;;2090135;28;20025;-69
2022/05/18 02:45:03;;;;;;;0.65;0.65;;;;;;;;;;2089968;28;20116;-66
2022/05/18 02:46:22;;;;;;;1.42;0.70;;;;;;;;;;2088468;28;20032;-69
2022/05/18 02:47:40;;;;;;;1.50;0.60;;;;;;;;;;2088806;28;20101;-69
2022/05/18 02:48:59;;;;;;;0.60;0.60;;;;;;;;;;2089747;28;20403;-69
2022/05/18 02:50:18;;;;;;;0.98;0.75;;;;;;;;;;2090232;28;20060;-69
2022/05/18 02:51:41;;;;;;;3.13;0.90;;;;;;;;;;2089403;28;20032;-70
2022/05/18 02:53:01;;;;;;;6.32;1.23;;;;;;;;;;2079399;28;20038;-68
2022/05/18 02:56:07;;;;;;;2.38;1.00;;;;;;;;;;2088756;28;20021;-69
2022/05/18 02:57:26;;;;;;;1.85;0.80;;;;;;;;;;2089032;28;20427;-69
2022/05/18 02:58:47;;;;;;;1.38;0.93;;;;;;;;;;2088538;28;20088;-68
2022/05/18 03:00:07;;;;;;;1.92;1.00;;;;;;;;;;2080953;28;20459;-69
2022/05/18 03:01:27;;;;;;;0.70;0.70;;;;;;;;;;2077937;28;20033;-69
2022/05/18 03:02:46;;;;;;;1.42;0.90;;;;;;;;;;2085665;28;20021;-69
2022/05/18 03:04:05;;;;;;;1.20;1.10;;;;;;;;;;2089737;28;20021;-69
2022/05/18 03:05:24;;;;;;;1.63;0.80;;;;;;;;;;2088460;28;20025;-68
2022/05/18 03:06:43;;;;;;;3.03;0.60;;;;;;;;;;2081273;28;20033;-69
2022/05/18 03:08:01;;;;;;;1.52;0.90;;;;;;;;;;2086359;28;20029;-69
2022/05/18 03:09:20;;;;;;;0.93;0.70;;;;;;;;;;2088551;28;20060;-69
2022/05/18 03:10:41;;;;;;;1.55;0.70;;;;;;;;;;2087752;28;20099;-69
2022/05/18 03:12:02;;;;;;;1.23;0.80;;;;;;;;;;2089618;28;20029;-69
2022/05/18 03:13:21;;;;;;;0.82;0.82;;;;;;;;;;2089565;28;20028;-69
2022/05/18 03:14:40;;;;;;;1.60;0.98;;;;;;;;;;2089032;28;20499;-68
2022/05/18 03:15:59;;;;;;;1.77;0.90;;;;;;;;;;2088992;28;20021;-69
2022/05/18 03:17:18;;;;;;;0.90;0.70;;;;;;;;;;2088630;28;20029;-69
2022/05/18 03:18:37;;;;;;;0.95;0.90;;;;;;;;;;2089470;28;20025;-69
2022/05/18 03:19:55;;;;;;;3.30;0.98;;;;;;;;;;2090286;28;20171;-69
2022/05/18 03:24:30;;;;;;;0.77;0.60;;;;;;;;;;2089296;28;20061;-69
2022/05/18 03:25:49;;;;;;;1.77;0.80;;;;;;;;;;2072263;28;20026;-70
2022/05/18 03:27:09;;;;;;;2.85;1.00;;;;;;;;;;2078608;28;20021;-69
2022/05/18 03:28:28;;;;;;;0.75;0.60;;;;;;;;;;2086252;28;20025;-69
2022/05/18 03:29:47;;;;;;;1.38;0.68;;;;;;;;;;2080635;28;20455;-68
2022/05/18 03:31:06;;;;;;;1.00;0.90;;;;;;;;;;2084640;28;20398;-69
2022/05/18 03:32:25;;;;;;;1.58;0.90;;;;;;;;;;2088264;28;20025;-69
2022/05/18 03:33:44;;;;;;;1.63;1.00;;;;;;;;;;2088985;28;20025;-69
2022/05/18 03:35:03;;;;;;;1.13;1.00;;;;;;;;;;2081034;28;20029;-69
2022/05/18 03:36:23;;;;;;;0.98;0.95;;;;;;;;;;2085958;28;20041;-69
2022/05/18 03:37:42;;;;;;;2.05;0.80;;;;;;;;;;2089897;28;20033;-69
2022/05/18 03:39:01;;;;;;;2.08;0.90;;;;;;;;;;2088383;28;20028;-69
2022/05/18 03:40:20;;;;;;;2.80;0.80;;;;;;;;;;2089597;28;20037;-69
2022/05/18 03:41:39;;;;;;;0.80;0.80;;;;;;;;;;2077214;28;20069;-69
2022/05/18 03:42:58;;;;;;;2.03;1.00;;;;;;;;;;2069735;28;20025;-69
2022/05/18 03:44:19;;;;;;;1.20;1.10;;;;;;;;;;2074240;28;20033;-68
2022/05/18 03:45:38;;;;;;;2.75;0.82;;;;;;;;;;2068052;28;20018;-69
2022/05/18 03:46:57;;;;;;;0.77;0.77;;;;;;;;;;2076649;28;20041;-68
2022/05/18 03:48:17;;;;;;;1.48;0.93;;;;;;;;;;2078385;28;20025;-68
2022/05/18 03:49:35;;;;;;;2.03;0.98;;;;;;;;;;2070457;28;20468;-69
2022/05/18 03:50:55;;;;;;;0.95;0.80;;;;;;;;;;2075124;28;20443;-69
2022/05/18 03:52:14;;;;;;;2.25;0.95;;;;;;;;;;2076939;28;20033;-67
2022/05/18 03:53:33;;;;;;;2.10;1.17;;;;;;;;;;2077511;28;20424;-68
2022/05/18 03:54:52;;;;;;;2.88;1.35;;;;;;;;;;2078891;28;20045;-68
2022/05/18 03:56:11;;;;;;;1.42;0.82;;;;;;;;;;2076276;28;20046;-69
2022/05/18 03:57:30;;;;;;;1.75;1.33;;;;;;;;;;2075313;28;20448;-69
2022/05/18 03:58:49;;;;;;;1.17;0.90;;;;;;;;;;2074722;28;20061;-68
2022/05/18 04:00:08;;;;;;;2.58;1.10;;;;;;;;;;2077769;28;20033;-68
2022/05/18 04:01:28;;;;;;;1.30;1.00;;;;;;;;;;2077802;28;20025;-69
2022/05/18 04:02:49;;;;;;;0.85;0.80;;;;;;;;;;2069890;28;20031;-69
2022/05/18 04:04:08;;;;;;;1.27;1.17;;;;;;;;;;2076175;28;20025;-69
2022/05/18 04:05:27;;;;;;;1.67;1.00;;;;;;;;;;2076792;28;20105;-69
2022/05/18 04:06:46;;;;;;;3.15;1.00;;;;;;;;;;2078027;28;20030;-69
2022/05/18 04:08:07;;;;;;;1.38;0.63;;;;;;;;;;2069218;28;21237;-68
2022/05/18 04:09:26;;;;;;;1.88;0.90;;;;;;;;;;2076666;28;20060;-68
2022/05/18 04:10:45;;;;;;;1.65;1.13;;;;;;;;;;2077879;28;20112;-67
2022/05/18 04:12:05;;;;;;;1.02;0.73;;;;;;;;;;2079710;28;20046;-68
2022/05/18 04:13:27;;;;;;;0.63;0.63;;;;;;;;;;2077456;28;20026;-69
2022/05/18 04:14:46;;;;;;;2.78;0.93;;;;;;;;;;2079907;28;20029;-69
2022/05/18 04:16:05;;;;;;;1.98;1.00;;;;;;;;;;2080863;28;20120;-68
2022/05/18 04:17:25;;;;;;;4.70;0.98;;;;;;;;;;2079860;28;20025;-68
2022/05/18 04:18:44;;;;;;;4.43;1.20;;;;;;;;;;2078425;28;20388;-68
2022/05/18 04:20:04;;;;;;;2.63;1.00;;;;;;;;;;2079674;28;20037;-68
2022/05/18 04:21:23;;;;;;;1.52;0.82;;;;;;;;;;2079177;28;20033;-69
2022/05/18 04:22:42;;;;;;;1.15;0.90;;;;;;;;;;2081778;28;20034;-68
2022/05/18 04:24:00;;;;;;;1.20;0.65;;;;;;;;;;2079348;28;20045;-69
2022/05/18 04:25:21;;;;;;;1.50;1.27;;;;;;;;;;2078865;28;20396;-69
2022/05/18 04:26:40;;;;;;;1.88;1.08;;;;;;;;;;2071201;28;20026;-69
2022/05/18 04:27:59;;;;;;;1.10;1.00;;;;;;;;;;2075635;28;20058;-67
2022/05/18 04:29:18;;;;;;;2.22;0.85;;;;;;;;;;2068104;28;20034;-67
2022/05/18 04:30:37;;;;;;;4.03;0.82;;;;;;;;;;2075657;28;20113;-69
2022/05/18 04:31:56;;;;;;;1.65;0.98;;;;;;;;;;2077803;28;20508;-69
2022/05/18 04:33:18;;;;;;;1.00;0.90;;;;;;;;;;2079553;28;20026;-67
2022/05/18 04:34:38;;;;;;;1.10;1.00;;;;;;;;;;2078125;28;20022;-69
2022/05/18 04:35:56;;;;;;;2.42;1.20;;;;;;;;;;2079073;28;20046;-67
2022/05/18 04:37:16;;;;;;;1.95;1.15;;;;;;;;;;2076668;28;20425;-69
2022/05/18 04:38:35;;;;;;;1.42;1.00;;;;;;;;;;2072434;28;20026;-69
2022/05/18 04:39:53;;;;;;;1.15;0.73;;;;;;;;;;2078341;28;20025;-68
2022/05/18 04:41:12;;;;;;;2.50;1.00;;;;;;;;;;2077366;28;20682;-69
2022/05/18 04:42:31;;;;;;;1.27;1.00;;;;;;;;;;2087211;28;20057;-69
2022/05/18 04:43:50;;;;;;;1.50;0.90;;;;;;;;;;2090523;28;20029;-69
2022/05/18 04:45:11;;;;;;;1.48;0.82;;;;;;;;;;2081689;28;20033;-68
2022/05/18 04:46:30;;;;;;;1.75;1.00;;;;;;;;;;2086312;28;20072;-70
2022/05/18 04:47:49;;;;;;;1.63;0.95;;;;;;;;;;2089896;28;20029;-69
2022/05/18 04:49:12;;;;;;;1.17;1.08;;;;;;;;;;2089399;28;20472;-69
2022/05/18 04:50:31;;;;;;;1.70;1.02;;;;;;;;;;2087509;28;20037;-69
2022/05/18 04:51:50;;;;;;;4.90;1.00;;;;;;;;;;2089327;28;20033;-68
2022/05/18 04:53:10;;;;;;;2.20;0.90;;;;;;;;;;2080630;28;20030;-69
2022/05/18 04:54:29;;;;;;;3.08;1.00;;;;;;;;;;2086160;28;20107;-69
2022/05/18 04:55:49;;;;;;;2.17;1.10;;;;;;;;;;2089194;28;20029;-69
2022/05/18 04:57:08;;;;;;;1.70;1.05;;;;;;;;;;2090018;28;20104;-69
2022/05/18 04:58:27;;;;;;;3.50;0.80;;;;;;;;;;2091118;28;20029;-69
2022/05/18 04:59:48;;;;;;;2.22;0.85;;;;;;;;;;2090242;28;20037;-69
2022/05/18 05:01:07;;;;;;;0.85;0.85;;;;;;;;;;2090617;28;20431;-70
2022/05/18 05:02:27;;;;;;;3.50;0.90;;;;;;;;;;2081423;28;20030;-70
2022/05/18 05:03:46;;;;;;;0.93;0.90;;;;;;;;;;2086695;28;20029;-68
2022/05/18 05:05:06;;;;;;;1.67;1.00;;;;;;;;;;2089462;28;20025;-68
2022/05/18 05:06:24;;;;;;;2.08;1.10;;;;;;;;;;2082214;28;20029;-69
2022/05/18 05:07:43;;;;;;;3.55;1.15;;;;;;;;;;2085886;28;20406;-69
2022/05/18 05:09:03;;;;;;;0.85;0.73;;;;;;;;;;2090933;28;20045;-69
2022/05/18 05:10:22;;;;;;;2.17;1.25;;;;;;;;;;2089431;28;20041;-66
2022/05/18 05:11:41;;;;;;;3.95;1.25;;;;;;;;;;2087584;28;20032;-69
2022/05/18 05:12:59;;;;;;;2.20;1.00;;;;;;;;;;2078656;28;20029;-66
2022/05/18 05:14:18;;;;;;;1.27;1.10;;;;;;;;;;2087231;28;20127;-69
2022/05/18 05:15:37;;;;;;;1.77;0.93;;;;;;;;;;2090708;28;20032;-69
2022/05/18 05:16:56;;;;;;;2.45;0.82;;;;;;;;;;2081597;28;20112;-69
2022/05/18 05:18:15;;;;;;;2.75;0.88;;;;;;;;;;2086946;28;20017;-69
2022/05/18 05:19:38;;;;;;;3.33;1.05;;;;;;;;;;2090023;28;20029;-69
2022/05/18 05:20:57;;;;;;;3.45;1.42;;;;;;;;;;2081443;28;20064;-69
2022/05/18 05:22:16;;;;;;;2.10;0.80;;;;;;;;;;2086668;28;20523;-71
2022/05/18 05:23:35;;;;;;;3.42;1.02;;;;;;;;;;2090814;28;20052;-70
2022/05/18 05:24:54;;;;;;;1.67;1.55;;;;;;;;;;2088958;28;20056;-69
2022/05/18 05:26:13;;;;;;;2.25;0.90;;;;;;;;;;2088196;28;20033;-70
2022/05/18 05:27:32;;;;;;;4.07;1.33;;;;;;;;;;2080082;28;20029;-70
2022/05/18 05:28:51;;;;;;;1.50;1.15;;;;;;;;;;2074676;28;20029;-71
2022/05/18 05:30:10;;;;;;;3.67;1.38;;;;;;;;;;2084212;28;20491;-70
2022/05/18 05:31:29;;;;;;;13.52;1.58;;;;;;;;;;2088502;28;20029;-69
2022/05/18 05:32:48;;;;;;;1.35;1.15;;;;;;;;;;2089990;28;20065;-70
2022/05/18 05:34:07;;;;;;;0.73;0.73;;;;;;;;;;2090395;28;20469;-70
2022/05/18 05:35:26;;;;;;;0.70;0.70;;;;;;;;;;2089463;28;20403;-69
2022/05/18 05:36:45;;;;;;;1.92;1.00;;;;;;;;;;2089900;28;20039;-70
2022/05/18 05:38:04;;;;;;;3.35;1.20;;;;;;;;;;2088257;28;20104;-69
2022/05/18 05:39:23;;;;;;;5.75;1.40;;;;;;;;;;2089663;28;20033;-70
2022/05/18 05:40:42;;;;;;;2.78;1.00;;;;;;;;;;2088966;28;20041;-69
2022/05/18 05:42:01;;;;;;;1.38;1.08;;;;;;;;;;2089523;28;20104;-70
2022/05/18 05:43:20;;;;;;;3.70;1.05;;;;;;;;;;2089767;28;20507;-70
2022/05/18 05:44:40;;;;;;;1.50;1.02;;;;;;;;;;2089860;28;20446;-70
2022/05/18 05:46:03;;;;;;;4.45;1.00;;;;;;;;;;2080946;28;20049;-70
2022/05/18 05:47:22;;;;;;;2.95;1.42;;;;;;;;;;2077889;28;20022;-70
2022/05/18 05:48:42;;;;;;;3.53;1.40;;;;;;;;;;2076501;28;20112;-70
2022/05/18 05:50:01;;;;;;;1.08;1.00;;;;;;;;;;2086404;28;20380;-70
2022/05/18 05:51:23;;;;;;;4.07;1.05;;;;;;;;;;2088373;28;20040;-69
2022/05/18 05:52:42;;;;;;;3.60;1.13;;;;;;;;;;2079712;28;20021;-70
2022/05/18 05:54:01;;;;;;;1.17;1.00;;;;;;;;;;2077595;28;20025;-70
2022/05/18 05:55:20;;;;;;;3.08;0.80;;;;;;;;;;2085168;28;20025;-69
2022/05/18 05:56:39;;;;;;;9.27;0.98;;;;;;;;;;2089354;28;20029;-71
2022/05/18 05:57:58;;;;;;;3.00;1.25;;;;;;;;;;2089409;28;20029;-68
2022/05/18 05:59:19;;;;;;;2.83;0.98;;;;;;;;;;2086623;28;20399;-69
2022/05/18 06:00:38;;;;;;;6.65;1.10;;;;;;;;;;2089220;28;20499;-69
2022/05/18 06:01:58;;;;;;;4.15;1.17;;;;;;;;;;2088884;28;20454;-69
2022/05/18 06:03:18;;;;;;;4.22;1.10;;;;;;;;;;2090209;28;20029;-69
2022/05/18 06:04:37;;;;;;;1.75;1.10;;;;;;;;;;2090182;28;20391;-69
2022/05/18 06:05:56;;;;;;;2.40;0.93;;;;;;;;;;2088777;28;20017;-68
2022/05/18 06:07:15;;;;;;;1.08;0.80;;;;;;;;;;2090613;28;20028;-70
2022/05/18 06:08:35;;;;;;;1.80;0.98;;;;;;;;;;2088641;28;20033;-69
2022/05/18 06:09:54;;;;;;;4.20;1.10;;;;;;;;;;2089528;28;20025;-69
2022/05/18 06:11:13;;;;;;;1.48;0.80;;;;;;;;;;2080448;28;20041;-70
2022/05/18 06:12:32;;;;;;;4.15;1.35;;;;;;;;;;2086088;28;20356;-70
2022/05/18 06:13:51;;;;;;;2.25;0.80;;;;;;;;;;2089442;28;20503;-69
2022/05/18 06:15:10;;;;;;;2.38;0.75;;;;;;;;;;2080794;28;20025;-70
2022/05/18 06:16:29;;;;;;;2.63;1.27;;;;;;;;;;2084610;28;20029;-69
2022/05/18 06:17:47;;;;;;;2.50;1.85;;;;;;;;;;2090145;28;20025;-70
2022/05/18 06:19:06;;;;;;;2.85;1.23;;;;;;;;;;2089499;28;20033;-69
2022/05/18 06:20:26;;;;;;;1.00;1.00;;;;;;;;;;2089502;28;20021;-70
2022/05/18 06:21:47;;;;;;;2.83;0.90;;;;;;;;;;2089919;28;20551;-70
2022/05/18 06:23:07;;;;;;;1.25;0.90;;;;;;;;;;2080123;28;20475;-70
2022/05/18 06:24:26;;;;;;;4.68;1.10;;;;;;;;;;2086800;28;20021;-69
2022/05/18 06:25:46;;;;;;;2.17;0.98;;;;;;;;;;2089335;28;20021;-71
2022/05/18 06:27:05;;;;;;;3.60;1.08;;;;;;;;;;2081133;28;20065;-69
2022/05/18 06:28:24;;;;;;;7.45;1.30;;;;;;;;;;2086797;28;20495;-70
2022/05/18 06:29:43;;;;;;;0.90;0.88;;;;;;;;;;2088265;28;20119;-69
2022/05/18 06:31:03;;;;;;;3.88;1.20;;;;;;;;;;2080265;28;20049;-69
2022/05/18 06:32:22;;;;;;;1.58;1.00;;;;;;;;;;2086252;28;20036;-68
2022/05/18 06:33:41;;;;;;;2.38;0.90;;;;;;;;;;2087164;28;20487;-66
2022/05/18 06:35:01;;;;;;;0.98;0.85;;;;;;;;;;2089217;28;20483;-67
2022/05/18 06:36:24;;;;;;;2.33;1.10;;;;;;;;;;2079612;28;20025;-70
2022/05/18 06:37:44;;;;;;;2.13;1.02;;;;;;;;;;2086167;28;20033;-68
2022/05/18 06:39:03;;;;;;;2.25;1.10;;;;;;;;;;2087833;28;20157;-68
2022/05/18 06:41:21;;;;;;;1.02;0.82;;;;;;;;;;2087016;28;20104;-68
2022/05/18 06:42:01;;;;;;;3.53;1.15;;;;;;;;;;2088832;28;20045;-67
2022/05/18 06:43:20;;;;;;;1.58;0.95;;;;;;;;;;2087904;28;20399;-68
2022/05/18 06:44:39;;;;;;;1.98;1.00;;;;;;;;;;2080181;28;20033;-68
2022/05/18 06:46:00;;;;;;;1.23;1.08;;;;;;;;;;2084957;28;20069;-68
2022/05/18 06:47:19;;;;;;;0.90;0.90;;;;;;;;;;2088281;28;20041;-68
2022/05/18 06:48:41;;;;;;;10.50;1.15;;;;;;;;;;2080162;28;20022;-67
2022/05/18 06:50:01;;;;;;;3.28;1.38;;;;;;;;;;2086210;28;20021;-67
2022/05/18 06:51:21;;;;;;;5.15;1.30;;;;;;;;;;2080707;28;20034;-67
2022/05/18 06:52:40;;;;;;;2.38;1.10;;;;;;;;;;2085502;28;20025;-67
2022/05/18 06:53:59;;;;;;;2.35;1.25;;;;;;;;;;2089216;28;20033;-67
2022/05/18 06:55:18;;;;;;;2.33;1.40;;;;;;;;;;2089613;28;20025;-67
2022/05/18 06:56:38;;;;;;;3.55;1.00;;;;;;;;;;2079422;28;20065;-66
2022/05/18 06:57:57;;;;;;;4.18;1.17;;;;;;;;;;2076911;28;20025;-67
2022/05/18 06:59:16;;;;;;;3.55;1.33;;;;;;;;;;2084948;28;20092;-68
2022/05/18 07:00:35;;;;;;;1.02;0.80;;;;;;;;;;2087705;28;20021;-67
2022/05/18 07:01:54;;;;;;;2.17;0.90;;;;;;;;;;2088286;28;20483;-65
2022/05/18 07:03:14;;;;;;;10.00;1.40;;;;;;;;;;2080002;28;20026;-67
2022/05/18 07:04:33;;;;;;;6.53;1.17;;;;;;;;;;2086257;28;20025;-68
2022/05/18 07:05:52;;;;;;;2.33;0.95;;;;;;;;;;2089814;28;20025;-67
2022/05/18 07:07:12;;;;;;;5.40;1.55;;;;;;;;;;2089253;28;20495;-67
2022/05/18 07:08:31;;;;;;;2.47;1.00;;;;;;;;;;2090308;28;20033;-67
2022/05/18 07:09:50;;;;;;;2.80;1.05;;;;;;;;;;2090008;28;20096;-67
2022/05/18 07:11:09;;;;;;;4.65;1.00;;;;;;;;;;2089276;28;20056;-67
2022/05/18 07:12:28;;;;;;;2.28;0.95;;;;;;;;;;2088025;28;20037;-67
2022/05/18 07:13:51;;;;;;;2.60;0.75;;;;;;;;;;2088292;28;20491;-67
2022/05/18 07:15:10;;;;;;;2.05;0.82;;;;;;;;;;2080116;28;20060;-67
2022/05/18 07:16:29;;;;;;;1.00;0.90;;;;;;;;;;2085358;28;20033;-67
2022/05/18 07:17:49;;;;;;;1.75;1.20;;;;;;;;;;2080990;28;20522;-67
2022/05/18 07:19:08;;;;;;;1.10;1.00;;;;;;;;;;2084069;28;20029;-67
2022/05/18 07:20:27;;;;;;;0.93;0.88;;;;;;;;;;2087970;28;20068;-67
2022/05/18 07:21:47;;;;;;;3.40;1.15;;;;;;;;;;2088241;28;20025;-67
2022/05/18 07:23:06;;;;;;;3.92;1.02;;;;;;;;;;2089736;28;20104;-68
2022/05/18 07:24:25;;;;;;;2.53;0.93;;;;;;;;;;2089890;28;20025;-68
2022/05/18 07:25:44;;;;;;;3.13;0.90;;;;;;;;;;2089223;28;20017;-70
2022/05/18 07:27:03;;;;;;;1.88;0.90;;;;;;;;;;2088231;28;20045;-68
2022/05/18 07:28:23;;;;;;;5.45;1.42;;;;;;;;;;2088435;28;20029;-72
2022/05/18 07:29:41;;;;;;;2.75;0.82;;;;;;;;;;2088813;28;20029;-68
2022/05/18 07:31:00;;;;;;;1.20;0.77;;;;;;;;;;2079774;28;20033;-68
2022/05/18 07:32:19;;;;;;;2.95;1.15;;;;;;;;;;2085571;28;20045;-67
2022/05/18 07:33:38;;;;;;;1.02;0.90;;;;;;;;;;2086601;28;20524;-69
2022/05/18 07:34:57;;;;;;;3.33;0.80;;;;;;;;;;2088199;28;20029;-67
2022/05/18 07:36:17;;;;;;;2.90;0.85;;;;;;;;;;2089336;28;20025;-69
2022/05/18 07:37:36;;;;;;;3.80;1.08;;;;;;;;;;2089292;28;20033;-68
2022/05/18 07:38:55;;;;;;;3.78;1.20;;;;;;;;;;2089294;28;20108;-68
2022/05/18 07:40:14;;;;;;;5.50;1.38;;;;;;;;;;2089271;28;20025;-68
2022/05/18 07:41:33;;;;;;;1.55;1.02;;;;;;;;;;2089228;28;20049;-68
2022/05/18 07:42:56;;;;;;;3.60;1.38;;;;;;;;;;2087498;28;20026;-68
2022/05/18 07:44:15;;;;;;;2.25;1.00;;;;;;;;;;2088377;28;20017;-68
2022/05/18 07:45:35;;;;;;;2.15;1.10;;;;;;;;;;2089519;28;20100;-68
2022/05/18 07:46:55;;;;;;;4.78;1.02;;;;;;;;;;2090914;28;20025;-68
2022/05/18 07:48:14;;;;;;;2.97;0.80;;;;;;;;;;2080793;28;20037;-68
2022/05/18 07:49:40;;;;;;;2.92;1.00;;;;;;;;;;2086617;28;20108;-68
2022/05/18 07:50:59;;;;;;;2.63;0.82;;;;;;;;;;2089671;28;20030;-68
2022/05/18 07:52:18;;;;;;;3.17;0.75;;;;;;;;;;2088315;28;20072;-67
2022/05/18 07:53:37;;;;;;;1.98;0.80;;;;;;;;;;2090581;28;20021;-70
2022/05/18 07:54:56;;;;;;;2.15;0.90;;;;;;;;;;2081602;28;20112;-68
2022/05/18 07:56:15;;;;;;;1.90;1.20;;;;;;;;;;2087633;28;20029;-68
2022/05/18 07:57:34;;;;;;;0.85;0.68;;;;;;;;;;2089282;28;20029;-69
2022/05/18 07:58:53;;;;;;;5.93;1.10;;;;;;;;;;2089651;28;20965;-68
2022/05/18 08:00:12;;;;;;;2.03;0.80;;;;;;;;;;2080340;28;20033;-68
2022/05/18 08:01:32;;;;;;;2.95;1.20;;;;;;;;;;2087547;28;20021;-68
2022/05/18 08:02:51;;;;;;;4.13;0.90;;;;;;;;;;2089089;28;20043;-68